createdAt,value
2016-09-10T00:01:17.108Z,0
2016-09-10T00:02:17.037Z,0
2016-09-10T00:03:17.402Z,0
2016-09-10T00:04:17.091Z,0
2016-09-10T00:05:17.112Z,0
2016-09-10T00:07:17.175Z,0
2016-09-10T00:10:17.261Z,0
2016-09-10T00:11:17.315Z,0
2016-09-10T00:12:17.512Z,0
2016-09-10T00:13:17.355Z,0
2016-09-10T00:14:17.652Z,0
2016-09-10T00:15:17.394Z,0
2016-09-10T00:17:17.503Z,0
2016-09-10T00:18:17.551Z,0
2016-09-10T00:19:17.506Z,0
2016-09-10T00:20:17.851Z,0
2016-09-10T00:21:18.644Z,0
2016-09-10T00:22:17.566Z,0
2016-09-10T00:24:17.638Z,0
2016-09-10T00:26:17.683Z,0
2016-09-10T00:27:17.763Z,0
2016-09-10T00:28:17.739Z,0
2016-09-10T00:29:18.210Z,0
2016-09-10T00:30:32.709Z,0
2016-09-10T00:31:18.116Z,0
2016-09-10T00:32:17.836Z,0
2016-09-10T00:33:18.162Z,0
2016-09-10T00:34:33.136Z,0
2016-09-10T00:35:18.008Z,0
2016-09-10T00:37:18.267Z,0
2016-09-10T00:38:18.264Z,0
2016-09-10T00:39:18.450Z,0
2016-09-10T00:40:18.141Z,0
2016-09-10T00:41:18.111Z,0
2016-09-10T00:42:33.016Z,0
2016-09-10T00:43:18.506Z,0
2016-09-10T00:44:33.064Z,0
2016-09-10T00:45:33.163Z,0
2016-09-10T00:46:18.543Z,0
2016-09-10T00:47:18.588Z,0
2016-09-10T00:48:18.254Z,0
2016-09-10T00:49:18.292Z,0
2016-09-10T00:50:18.307Z,0
2016-09-10T00:51:18.632Z,0
2016-09-10T00:52:18.377Z,0
2016-09-10T00:53:18.371Z,0
2016-09-10T00:54:18.714Z,0
2016-09-10T00:55:33.346Z,0
2016-09-10T00:56:18.791Z,0
2016-09-10T00:57:18.595Z,0
2016-09-10T00:58:18.685Z,0
2016-09-10T00:59:18.526Z,0
2016-09-10T01:00:18.560Z,0
2016-09-10T01:01:19.103Z,0
2016-09-10T01:02:18.930Z,0
2016-09-10T01:03:18.636Z,0
2016-09-10T01:04:33.578Z,0
2016-09-10T01:06:18.707Z,0
2016-09-10T01:08:18.788Z,0
2016-09-10T01:09:19.402Z,0
2016-09-10T01:10:18.817Z,0
2016-09-10T01:11:33.768Z,0
2016-09-10T01:12:18.873Z,0
2016-09-10T01:13:18.894Z,0
2016-09-10T01:14:19.558Z,0
2016-09-10T01:15:33.865Z,0
2016-09-10T01:16:19.575Z,0
2016-09-10T01:17:18.988Z,0
2016-09-10T01:18:33.953Z,0
2016-09-10T01:19:33.970Z,0
2016-09-10T01:20:19.500Z,0
2016-09-10T01:21:19.089Z,0
2016-09-10T01:22:19.130Z,0
2016-09-10T01:23:19.457Z,0
2016-09-10T01:25:19.362Z,0
2016-09-10T01:26:19.282Z,0
2016-09-10T01:27:34.482Z,0
2016-09-10T01:28:19.585Z,0
2016-09-10T01:29:19.622Z,0
2016-09-10T01:30:19.705Z,0
2016-09-10T01:31:19.449Z,0
2016-09-10T01:32:19.723Z,0
2016-09-10T01:34:19.689Z,0
2016-09-10T01:35:19.460Z,0
2016-09-10T01:36:19.485Z,0
2016-09-10T01:37:19.500Z,0
2016-09-10T01:38:19.522Z,0
2016-09-10T01:39:19.574Z,0
2016-09-10T01:41:19.601Z,0
2016-09-10T01:42:19.631Z,0
2016-09-10T01:43:34.601Z,0
2016-09-10T01:44:19.703Z,0
2016-09-10T01:45:20.019Z,0
2016-09-10T01:46:20.186Z,0
2016-09-10T01:47:19.901Z,0
2016-09-10T01:48:20.084Z,0
2016-09-10T01:49:19.837Z,0
2016-09-10T01:50:19.854Z,0
2016-09-10T01:51:19.878Z,0
2016-09-10T01:52:19.995Z,0
2016-09-10T01:53:19.925Z,0
2016-09-10T01:54:19.943Z,0
2016-09-10T01:55:19.968Z,0
2016-09-10T01:56:19.989Z,0
2016-09-10T01:57:20.031Z,0
2016-09-10T01:58:35.063Z,0
2016-09-10T01:59:20.113Z,0
2016-09-10T02:00:20.113Z,0
2016-09-10T02:01:20.127Z,0
2016-09-10T02:02:20.395Z,0
2016-09-10T02:03:20.169Z,0
2016-09-10T02:04:20.509Z,0
2016-09-10T02:05:35.149Z,0
2016-09-10T02:06:35.191Z,0
2016-09-10T02:07:20.275Z,0
2016-09-10T02:09:20.384Z,0
2016-09-10T02:10:20.674Z,0
2016-09-10T02:11:20.375Z,0
2016-09-10T02:12:20.412Z,0
2016-09-10T02:13:20.433Z,0
2016-09-10T02:14:20.469Z,0
2016-09-10T02:15:20.824Z,0
2016-09-10T02:16:20.578Z,0
2016-09-10T02:17:36.161Z,0
2016-09-10T02:18:20.578Z,0
2016-09-10T02:19:20.592Z,0
2016-09-10T02:20:20.624Z,0
2016-09-10T02:21:20.640Z,0
2016-09-10T02:22:20.652Z,0
2016-09-10T02:23:20.697Z,0
2016-09-10T02:24:21.049Z,0
2016-09-10T02:25:21.128Z,0
2016-09-10T02:26:21.112Z,0
2016-09-10T02:27:21.134Z,0
2016-09-10T02:28:20.818Z,0
2016-09-10T02:29:20.883Z,0
2016-09-10T02:30:35.814Z,0
2016-09-10T02:31:21.292Z,0
2016-09-10T02:32:21.064Z,0
2016-09-10T02:33:20.934Z,0
2016-09-10T02:34:20.973Z,0
2016-09-10T02:35:20.994Z,0
2016-09-10T02:36:21.344Z,0
2016-09-10T02:37:21.101Z,0
2016-09-10T02:38:21.388Z,0
2016-09-10T02:39:21.744Z,0
2016-09-10T02:40:21.121Z,0
2016-09-10T02:41:21.161Z,0
2016-09-10T02:42:21.254Z,0
2016-09-10T02:43:21.620Z,0
2016-09-10T02:44:21.212Z,0
2016-09-10T02:45:21.240Z,0
2016-09-10T02:46:36.515Z,0
2016-09-10T02:47:21.296Z,0
2016-09-10T02:48:21.336Z,0
2016-09-10T02:49:22.060Z,0
2016-09-10T02:50:21.372Z,0
2016-09-10T02:53:21.481Z,0
2016-09-10T02:54:21.793Z,0
2016-09-10T02:55:21.895Z,0
2016-09-10T02:56:21.517Z,0
2016-09-10T02:57:21.552Z,0
2016-09-10T02:58:21.569Z,0
2016-09-10T02:59:21.595Z,0
2016-09-10T03:00:21.642Z,0
2016-09-10T03:01:21.955Z,0
2016-09-10T03:02:36.945Z,0
2016-09-10T03:04:22.062Z,0
2016-09-10T03:05:21.744Z,0
2016-09-10T03:06:22.221Z,0
2016-09-10T03:07:21.805Z,0
2016-09-10T03:08:22.235Z,0
2016-09-10T03:09:36.777Z,0
2016-09-10T03:10:37.160Z,0
2016-09-10T03:11:37.202Z,0
2016-09-10T03:12:21.940Z,0
2016-09-10T03:13:21.967Z,0
2016-09-10T03:14:21.994Z,0
2016-09-10T03:15:22.019Z,0
2016-09-10T03:16:22.334Z,0
2016-09-10T03:17:22.076Z,0
2016-09-10T03:18:37.009Z,0
2016-09-10T03:19:22.133Z,0
2016-09-10T03:20:22.173Z,0
2016-09-10T03:21:22.164Z,0
2016-09-10T03:22:22.192Z,0
2016-09-10T03:23:22.512Z,0
2016-09-10T03:25:37.203Z,0
2016-09-10T03:26:22.281Z,0
2016-09-10T03:27:22.324Z,0
2016-09-10T03:28:22.339Z,0
2016-09-10T03:29:37.280Z,0
2016-09-10T03:30:22.792Z,0
2016-09-10T03:31:22.419Z,0
2016-09-10T03:32:22.454Z,0
2016-09-10T03:33:37.417Z,0
2016-09-10T03:34:22.487Z,0
2016-09-10T03:35:22.520Z,0
2016-09-10T03:36:22.538Z,0
2016-09-10T03:38:22.647Z,0
2016-09-10T03:39:22.920Z,0
2016-09-10T03:40:37.873Z,0
2016-09-10T03:41:23.275Z,0
2016-09-10T03:42:37.697Z,0
2016-09-10T03:43:37.638Z,0
2016-09-10T03:44:22.737Z,0
2016-09-10T03:45:23.121Z,0
2016-09-10T03:48:22.880Z,0
2016-09-10T03:49:22.877Z,0
2016-09-10T03:50:22.919Z,0
2016-09-10T03:51:23.642Z,0
2016-09-10T03:52:23.060Z,0
2016-09-10T03:53:22.964Z,0
2016-09-10T03:54:23.342Z,0
2016-09-10T03:55:23.644Z,4
2016-09-10T03:56:23.074Z,4
2016-09-10T03:57:37.995Z,0
2016-09-10T03:58:23.095Z,0
2016-09-10T03:59:38.043Z,4
2016-09-10T04:00:23.467Z,0
2016-09-10T04:02:23.315Z,4
2016-09-10T04:03:23.517Z,4
2016-09-10T04:04:23.293Z,4
2016-09-10T04:05:38.513Z,8
2016-09-10T04:06:23.384Z,12
2016-09-10T04:07:23.328Z,8
2016-09-10T04:08:23.368Z,12
2016-09-10T04:10:24.056Z,16
2016-09-10T04:11:38.365Z,24
2016-09-10T04:12:24.151Z,24
2016-09-10T04:13:23.612Z,28
2016-09-10T04:14:38.456Z,32
2016-09-10T04:15:23.533Z,40
2016-09-10T04:16:23.564Z,40
2016-09-10T04:18:38.519Z,56
2016-09-10T04:19:23.685Z,60
2016-09-10T04:20:23.667Z,68
2016-09-10T04:21:38.589Z,84
2016-09-10T04:22:23.714Z,88
2016-09-10T04:23:23.763Z,96
2016-09-10T04:25:23.800Z,120
2016-09-10T04:26:23.833Z,136
2016-09-10T04:27:38.753Z,152
2016-09-10T04:28:23.924Z,164
2016-09-10T04:30:24.245Z,196
2016-09-10T04:31:23.942Z,212
2016-09-10T04:32:24.365Z,232
2016-09-10T04:33:23.995Z,252
2016-09-10T04:34:23.999Z,276
2016-09-10T04:35:24.042Z,300
2016-09-10T04:36:24.063Z,320
2016-09-10T04:37:54.232Z,364
2016-09-10T04:39:24.150Z,412
2016-09-10T04:40:24.157Z,444
2016-09-10T04:41:24.297Z,476
2016-09-10T04:42:24.200Z,512
2016-09-10T04:43:24.314Z,548
2016-09-10T04:44:24.617Z,592
2016-09-10T04:45:39.270Z,644
2016-09-10T04:46:39.425Z,688
2016-09-10T04:47:25.524Z,724
2016-09-10T04:48:24.347Z,768
2016-09-10T04:49:24.395Z,816
2016-09-10T04:50:24.581Z,868
2016-09-10T04:51:25.030Z,924
2016-09-10T04:52:24.791Z,984
2016-09-10T04:53:39.914Z,1056
2016-09-10T04:54:25.197Z,1104
2016-09-10T04:55:25.029Z,1164
2016-09-10T04:56:24.574Z,1228
2016-09-10T04:57:24.898Z,1296
2016-09-10T04:58:24.619Z,1360
2016-09-10T04:59:24.632Z,1424
2016-09-10T05:00:24.660Z,1492
2016-09-10T05:01:39.608Z,1584
2016-09-10T05:02:24.727Z,1644
2016-09-10T05:03:24.728Z,1728
2016-09-10T05:04:25.057Z,1812
2016-09-10T05:05:24.800Z,1900
2016-09-10T05:06:24.801Z,1988
2016-09-10T05:07:39.768Z,2104
2016-09-10T05:08:39.799Z,2208
2016-09-10T05:09:24.891Z,2284
2016-09-10T05:10:25.315Z,2392
2016-09-10T05:11:24.932Z,2504
2016-09-10T05:12:24.958Z,2624
2016-09-10T05:13:25.289Z,2756
2016-09-10T05:14:25.156Z,2880
2016-09-10T05:15:25.389Z,3008
2016-09-10T05:16:25.358Z,3148
2016-09-10T05:17:25.112Z,3288
2016-09-10T05:19:25.456Z,3532
2016-09-10T05:20:25.161Z,3656
2016-09-10T05:22:25.237Z,3952
2016-09-10T05:23:25.287Z,4108
2016-09-10T05:24:25.289Z,4288
2016-09-10T05:25:25.287Z,4440
2016-09-10T05:26:25.321Z,4620
2016-09-10T05:28:25.402Z,4680
2016-09-10T05:29:25.409Z,4652
2016-09-10T05:30:25.830Z,4604
2016-09-10T05:31:25.742Z,4544
2016-09-10T05:32:25.493Z,4472
2016-09-10T05:33:25.492Z,4420
2016-09-10T05:34:25.512Z,4380
2016-09-10T05:35:40.612Z,4328
2016-09-10T05:36:25.605Z,4288
2016-09-10T05:37:25.931Z,4232
2016-09-10T05:38:25.939Z,4188
2016-09-10T05:39:25.685Z,4260
2016-09-10T05:40:40.619Z,4468
2016-09-10T05:41:25.703Z,4660
2016-09-10T05:42:40.657Z,5004
2016-09-10T05:43:25.761Z,5224
2016-09-10T05:44:25.795Z,5556
2016-09-10T05:45:25.861Z,5904
2016-09-10T05:46:26.187Z,6256
2016-09-10T05:47:26.174Z,6616
2016-09-10T05:48:25.899Z,6940
2016-09-10T05:49:25.988Z,7184
2016-09-10T05:50:26.271Z,7468
2016-09-10T05:51:25.977Z,8380
2016-09-10T05:52:26.035Z,8692
2016-09-10T05:54:26.643Z,10972
2016-09-10T05:55:26.368Z,10928
2016-09-10T05:56:41.026Z,11880
2016-09-10T05:57:26.491Z,12928
2016-09-10T05:58:26.496Z,13792
2016-09-10T05:59:26.179Z,14336
2016-09-10T06:00:26.354Z,15136
2016-09-10T06:01:26.228Z,15584
2016-09-10T06:02:26.468Z,16576
2016-09-10T06:03:26.595Z,16256
2016-09-10T06:04:27.017Z,16704
2016-09-10T06:05:26.643Z,16736
2016-09-10T06:06:26.364Z,16928
2016-09-10T06:07:26.406Z,17376
2016-09-10T06:08:26.421Z,17568
2016-09-10T06:09:26.885Z,18528
2016-09-10T06:10:26.846Z,18656
2016-09-10T06:12:41.533Z,18016
2016-09-10T06:13:26.560Z,18816
2016-09-10T06:14:26.869Z,19296
2016-09-10T06:15:26.659Z,19392
2016-09-10T06:16:26.636Z,19776
2016-09-10T06:17:26.657Z,19456
2016-09-10T06:18:26.695Z,19168
2016-09-10T06:19:26.717Z,19616
2016-09-10T06:20:27.119Z,18976
2016-09-10T06:21:41.700Z,17888
2016-09-10T06:22:27.161Z,18432
2016-09-10T06:23:26.860Z,17024
2016-09-10T06:24:27.190Z,18432
2016-09-10T06:25:26.910Z,19616
2016-09-10T06:26:42.161Z,21952
2016-09-10T06:28:41.901Z,17408
2016-09-10T06:30:27.043Z,19744
2016-09-10T06:31:27.085Z,17792
2016-09-10T06:32:27.169Z,20768
2016-09-10T06:33:27.176Z,22144
2016-09-10T06:34:27.171Z,23232
2016-09-10T06:35:42.115Z,23232
2016-09-10T06:36:27.230Z,21856
2016-09-10T06:37:27.242Z,19104
2016-09-10T06:38:27.275Z,19488
2016-09-10T06:39:27.405Z,17696
2016-09-10T06:40:27.479Z,24832
2016-09-10T06:41:27.377Z,21088
2016-09-10T06:43:57.282Z,25600
2016-09-10T06:44:27.460Z,26464
2016-09-10T06:45:27.488Z,25952
2016-09-10T06:46:27.909Z,27264
2016-09-10T06:48:27.883Z,28128
2016-09-10T06:49:27.623Z,27744
2016-09-10T06:50:27.635Z,26784
2016-09-10T06:51:27.675Z,30400
2016-09-10T06:52:27.708Z,29632
2016-09-10T06:53:27.739Z,28416
2016-09-10T06:54:28.458Z,29120
2016-09-10T06:55:27.793Z,30368
2016-09-10T06:56:27.915Z,30656
2016-09-10T06:57:28.214Z,30400
2016-09-10T06:58:28.228Z,29600
2016-09-10T06:59:42.835Z,31008
2016-09-10T07:00:43.261Z,30016
2016-09-10T07:02:28.048Z,33280
2016-09-10T07:03:28.112Z,33088
2016-09-10T07:04:28.072Z,31968
2016-09-10T07:05:28.106Z,33216
2016-09-10T07:06:28.245Z,34080
2016-09-10T07:07:28.501Z,34560
2016-09-10T07:08:28.624Z,34752
2016-09-10T07:09:28.256Z,34784
2016-09-10T07:10:28.753Z,35232
2016-09-10T07:11:28.404Z,34848
2016-09-10T07:13:43.354Z,33312
2016-09-10T07:14:28.423Z,34560
2016-09-10T07:15:43.754Z,36192
2016-09-10T07:16:28.497Z,35328
2016-09-10T07:17:28.794Z,35776
2016-09-10T07:18:28.528Z,36448
2016-09-10T07:19:43.487Z,35712
2016-09-10T07:20:28.605Z,34784
2016-09-10T07:21:28.708Z,34816
2016-09-10T07:22:28.667Z,36896
2016-09-10T07:23:28.699Z,35872
2016-09-10T07:24:29.195Z,36736
2016-09-10T07:26:28.795Z,35328
2016-09-10T07:27:29.150Z,37280
2016-09-10T07:28:28.925Z,35328
2016-09-10T07:29:28.903Z,35200
2016-09-10T07:30:28.926Z,36544
2016-09-10T07:31:43.902Z,36736
2016-09-10T07:32:29.009Z,35712
2016-09-10T07:33:29.219Z,37408
2016-09-10T07:34:44.288Z,36416
2016-09-10T07:35:29.094Z,36032
2016-09-10T07:36:29.437Z,36672
2016-09-10T07:37:29.204Z,36352
2016-09-10T07:38:29.202Z,35904
2016-09-10T07:39:29.234Z,34912
2016-09-10T07:40:29.258Z,36192
2016-09-10T07:41:29.310Z,36896
2016-09-10T07:42:29.670Z,36032
2016-09-10T07:43:29.430Z,35776
2016-09-10T07:44:29.418Z,36000
2016-09-10T07:45:29.740Z,35904
2016-09-10T07:46:29.489Z,34784
2016-09-10T07:47:44.411Z,36864
2016-09-10T07:48:29.581Z,37184
2016-09-10T07:50:29.642Z,36864
2016-09-10T07:51:29.731Z,36480
2016-09-10T07:52:30.299Z,36576
2016-09-10T07:53:29.698Z,35104
2016-09-10T07:54:29.778Z,36416
2016-09-10T07:56:29.804Z,35232
2016-09-10T07:57:30.139Z,35072
2016-09-10T07:58:29.878Z,35008
2016-09-10T07:59:29.921Z,35936
2016-09-10T08:00:29.947Z,35936
2016-09-10T08:01:30.335Z,34688
2016-09-10T08:02:30.324Z,34944
2016-09-10T08:03:44.995Z,36672
2016-09-10T08:04:45.016Z,35552
2016-09-10T08:05:30.617Z,34912
2016-09-10T08:06:30.492Z,34560
2016-09-10T08:07:30.226Z,33504
2016-09-10T08:08:30.307Z,32928
2016-09-10T08:09:30.574Z,33120
2016-09-10T08:10:30.361Z,32064
2016-09-10T08:11:30.317Z,31808
2016-09-10T08:12:45.569Z,32064
2016-09-10T08:13:30.454Z,31936
2016-09-10T08:14:30.734Z,32032
2016-09-10T08:15:30.482Z,31776
2016-09-10T08:16:30.525Z,31040
2016-09-10T08:17:30.839Z,31264
2016-09-10T08:18:45.520Z,31104
2016-09-10T08:20:30.941Z,30400
2016-09-10T08:21:30.655Z,30496
2016-09-10T08:22:30.996Z,30144
2016-09-10T08:23:30.734Z,30336
2016-09-10T08:24:31.069Z,30784
2016-09-10T08:25:30.882Z,29632
2016-09-10T08:26:31.340Z,29984
2016-09-10T08:27:31.182Z,29152
2016-09-10T08:28:30.931Z,30720
2016-09-10T08:29:30.985Z,29984
2016-09-10T08:30:31.080Z,27904
2016-09-10T08:31:31.008Z,25888
2016-09-10T08:32:31.332Z,25376
2016-09-10T08:33:31.062Z,24128
2016-09-10T08:34:31.099Z,23488
2016-09-10T08:36:31.262Z,22752
2016-09-10T08:37:46.126Z,22464
2016-09-10T08:38:31.886Z,21984
2016-09-10T08:39:31.284Z,21664
2016-09-10T08:40:31.297Z,21344
2016-09-10T08:41:31.344Z,21248
2016-09-10T08:42:46.292Z,21152
2016-09-10T08:43:46.407Z,21088
2016-09-10T08:44:32.049Z,21024
2016-09-10T08:45:32.085Z,20928
2016-09-10T08:46:31.515Z,20736
2016-09-10T08:47:31.556Z,20736
2016-09-10T08:48:31.885Z,20640
2016-09-10T08:49:32.063Z,20448
2016-09-10T08:50:46.572Z,20256
2016-09-10T08:51:31.817Z,20192
2016-09-10T08:52:31.729Z,20064
2016-09-10T08:53:32.105Z,20096
2016-09-10T08:54:31.860Z,19872
2016-09-10T08:55:31.831Z,19840
2016-09-10T08:56:31.865Z,19648
2016-09-10T08:57:32.279Z,19584
2016-09-10T08:58:31.923Z,19552
2016-09-10T08:59:31.994Z,19488
2016-09-10T09:00:31.977Z,19328
2016-09-10T09:01:32.084Z,19264
2016-09-10T09:02:32.473Z,19168
2016-09-10T09:03:32.080Z,19136
2016-09-10T09:04:32.130Z,19040
2016-09-10T09:05:32.520Z,19008
2016-09-10T09:06:47.128Z,18976
2016-09-10T09:07:47.137Z,18880
2016-09-10T09:08:32.263Z,18720
2016-09-10T09:09:32.501Z,18624
2016-09-10T09:10:32.333Z,18464
2016-09-10T09:11:32.376Z,18400
2016-09-10T09:12:32.447Z,18368
2016-09-10T09:13:32.434Z,18272
2016-09-10T09:14:33.060Z,18112
2016-09-10T09:15:32.795Z,18080
2016-09-10T09:16:32.858Z,18080
2016-09-10T09:17:47.795Z,17888
2016-09-10T09:18:32.664Z,17824
2016-09-10T09:19:32.983Z,17728
2016-09-10T09:20:33.491Z,17664
2016-09-10T09:21:47.930Z,17504
2016-09-10T09:22:47.957Z,17472
2016-09-10T09:24:32.793Z,17092
2016-09-10T09:25:32.844Z,16944
2016-09-10T09:26:32.883Z,16864
2016-09-10T09:27:32.915Z,16780
2016-09-10T09:28:32.940Z,16700
2016-09-10T09:29:33.277Z,16664
2016-09-10T09:30:33.501Z,16644
2016-09-10T09:31:33.092Z,16544
2016-09-10T09:33:33.444Z,16360
2016-09-10T09:34:48.082Z,16236
2016-09-10T09:35:48.713Z,16152
2016-09-10T09:36:33.553Z,16192
2016-09-10T09:37:33.246Z,16168
2016-09-10T09:38:48.210Z,16044
2016-09-10T09:39:33.627Z,15920
2016-09-10T09:40:48.604Z,15804
2016-09-10T09:41:33.398Z,15760
2016-09-10T09:42:33.457Z,15620
2016-09-10T09:43:33.533Z,15580
2016-09-10T09:44:33.609Z,15484
2016-09-10T09:45:33.553Z,15464
2016-09-10T09:46:33.541Z,15364
2016-09-10T09:47:33.597Z,15288
2016-09-10T09:48:33.937Z,15256
2016-09-10T09:49:33.646Z,15204
2016-09-10T09:51:48.666Z,15020
2016-09-10T09:54:03.657Z,14932
2016-09-10T09:54:33.850Z,14924
2016-09-10T09:55:34.407Z,14912
2016-09-10T09:56:33.880Z,14836
2016-09-10T09:58:33.963Z,14588
2016-09-10T09:59:34.000Z,14516
2016-09-10T10:00:34.037Z,14464
2016-09-10T10:01:34.100Z,14404
2016-09-10T10:02:34.092Z,14288
2016-09-10T10:04:34.222Z,14208
2016-09-10T10:05:34.246Z,14132
2016-09-10T10:06:34.562Z,14064
2016-09-10T10:07:34.303Z,14000
2016-09-10T10:08:34.301Z,13944
2016-09-10T10:10:34.363Z,13764
2016-09-10T10:11:34.401Z,13696
2016-09-10T10:12:34.755Z,13596
2016-09-10T10:13:34.519Z,13496
2016-09-10T10:14:34.804Z,13392
2016-09-10T10:15:34.534Z,13344
2016-09-10T10:16:34.572Z,13256
2016-09-10T10:18:34.988Z,13088
2016-09-10T10:19:49.589Z,13044
2016-09-10T10:20:34.690Z,12944
2016-09-10T10:21:34.731Z,12868
2016-09-10T10:22:34.825Z,12780
2016-09-10T10:23:34.799Z,12660
2016-09-10T10:24:35.659Z,12624
2016-09-10T10:25:50.109Z,12556
2016-09-10T10:26:35.208Z,12508
2016-09-10T10:27:35.021Z,12440
2016-09-10T10:28:35.291Z,12364
2016-09-10T10:29:34.995Z,12300
2016-09-10T10:30:35.338Z,12208
2016-09-10T10:31:35.049Z,12096
2016-09-10T10:32:35.411Z,11980
2016-09-10T10:33:35.130Z,11892
2016-09-10T10:34:35.461Z,11804
2016-09-10T10:35:35.352Z,11728
2016-09-10T10:36:35.230Z,11680
2016-09-10T10:37:35.272Z,11612
2016-09-10T10:38:50.218Z,11592
2016-09-10T10:39:35.319Z,11540
2016-09-10T10:41:50.308Z,11096
2016-09-10T10:42:50.333Z,10820
2016-09-10T10:43:35.462Z,10624
2016-09-10T10:44:50.425Z,10316
2016-09-10T10:45:35.510Z,10148
2016-09-10T10:46:35.839Z,9928
2016-09-10T10:47:35.591Z,9720
2016-09-10T10:48:35.935Z,9500
2016-09-10T10:49:50.601Z,9292
2016-09-10T10:50:35.690Z,9172
2016-09-10T10:51:36.128Z,8988
2016-09-10T10:52:35.775Z,8820
2016-09-10T10:53:36.092Z,8672
2016-09-10T10:54:35.794Z,8520
2016-09-10T10:55:36.018Z,8372
2016-09-10T10:56:35.873Z,8252
2016-09-10T10:57:51.135Z,8084
2016-09-10T10:58:35.941Z,7996
2016-09-10T10:59:36.281Z,7884
2016-09-10T11:00:36.002Z,7776
2016-09-10T11:01:36.031Z,7668
2016-09-10T11:02:36.353Z,7568
2016-09-10T11:03:36.516Z,7476
2016-09-10T11:04:36.121Z,7384
2016-09-10T11:05:36.164Z,7300
2016-09-10T11:06:36.184Z,7236
2016-09-10T11:07:36.237Z,7064
2016-09-10T11:08:36.252Z,7000
2016-09-10T11:09:36.585Z,6932
2016-09-10T11:10:37.060Z,6900
2016-09-10T11:11:36.334Z,6844
2016-09-10T11:12:36.674Z,6780
2016-09-10T11:13:51.731Z,6704
2016-09-10T11:14:36.443Z,6668
2016-09-10T11:15:36.467Z,6624
2016-09-10T11:16:36.614Z,6580
2016-09-10T11:17:36.876Z,6540
2016-09-10T11:18:36.863Z,6508
2016-09-10T11:19:36.621Z,6476
2016-09-10T11:20:37.119Z,6432
2016-09-10T11:21:36.729Z,6412
2016-09-10T11:22:37.006Z,6392
2016-09-10T11:23:37.682Z,6364
2016-09-10T11:24:36.871Z,6340
2016-09-10T11:25:36.803Z,6320
2016-09-10T11:26:36.884Z,6288
2016-09-10T11:28:51.796Z,6252
2016-09-10T11:29:37.595Z,6224
2016-09-10T11:30:36.945Z,6216
2016-09-10T11:31:37.285Z,6184
2016-09-10T11:32:51.925Z,6152
2016-09-10T11:33:37.093Z,6216
2016-09-10T11:34:37.130Z,6192
2016-09-10T11:35:37.096Z,6172
2016-09-10T11:36:52.053Z,6160
2016-09-10T11:37:37.167Z,6152
2016-09-10T11:38:37.899Z,6148
2016-09-10T11:39:37.222Z,6140
2016-09-10T11:40:52.479Z,6140
2016-09-10T11:41:52.361Z,6140
2016-09-10T11:42:37.317Z,6136
2016-09-10T11:43:52.370Z,6140
2016-09-10T11:44:37.393Z,6136
2016-09-10T11:45:37.405Z,6132
2016-09-10T11:46:37.449Z,6132
2016-09-10T11:47:38.118Z,6124
2016-09-10T11:48:37.794Z,6120
2016-09-10T11:49:37.842Z,6116
2016-09-10T11:50:52.790Z,6112
2016-09-10T11:51:37.603Z,6108
2016-09-10T11:52:52.547Z,6100
2016-09-10T11:53:52.577Z,6092
2016-09-10T11:54:52.670Z,6092
2016-09-10T11:55:37.729Z,6092
2016-09-10T11:56:37.839Z,6100
2016-09-10T11:57:37.807Z,6096
2016-09-10T11:58:37.816Z,6100
2016-09-10T11:59:37.854Z,6100
2016-09-10T12:01:37.907Z,6104
2016-09-10T12:02:38.633Z,6112
2016-09-10T12:03:38.093Z,6112
2016-09-10T12:04:37.986Z,6104
2016-09-10T12:05:38.332Z,6096
2016-09-10T12:06:38.098Z,6100
2016-09-10T12:07:38.388Z,6104
2016-09-10T12:09:38.456Z,6084
2016-09-10T12:10:38.507Z,6092
2016-09-10T12:11:53.432Z,6084
2016-09-10T12:12:38.237Z,6084
2016-09-10T12:13:38.585Z,6080
2016-09-10T12:14:38.622Z,6076
2016-09-10T12:15:38.388Z,6068
2016-09-10T12:17:38.704Z,6056
2016-09-10T12:18:38.424Z,6040
2016-09-10T12:20:53.721Z,6028
2016-09-10T12:21:39.864Z,6020
2016-09-10T12:23:38.629Z,6000
2016-09-10T12:24:38.630Z,5996
2016-09-10T12:25:38.654Z,5992
2016-09-10T12:26:38.990Z,5996
2016-09-10T12:27:38.801Z,6008
2016-09-10T12:28:39.101Z,6020
2016-09-10T12:29:53.994Z,6028
2016-09-10T12:30:38.827Z,6028
2016-09-10T12:31:38.998Z,6024
2016-09-10T12:32:53.949Z,6020
2016-09-10T12:33:39.398Z,6016
2016-09-10T12:34:54.171Z,6008
2016-09-10T12:35:39.011Z,5996
2016-09-10T12:36:39.013Z,5996
2016-09-10T12:37:39.016Z,5980
2016-09-10T12:38:53.967Z,5952
2016-09-10T12:39:39.375Z,5956
2016-09-10T12:41:39.130Z,5936
2016-09-10T12:42:39.161Z,5940
2016-09-10T12:43:39.218Z,5936
2016-09-10T12:44:39.231Z,5940
2016-09-10T12:45:39.292Z,5936
2016-09-10T12:46:39.790Z,5928
2016-09-10T12:47:39.339Z,5920
2016-09-10T12:48:54.317Z,5920
2016-09-10T12:49:39.410Z,5916
2016-09-10T12:50:39.433Z,5908
2016-09-10T12:51:40.148Z,5896
2016-09-10T12:52:39.858Z,5884
2016-09-10T12:53:39.517Z,5880
2016-09-10T12:54:39.551Z,5852
2016-09-10T12:55:39.875Z,5828
2016-09-10T12:56:54.522Z,5816
2016-09-10T12:57:39.630Z,5820
2016-09-10T12:58:39.664Z,5812
2016-09-10T12:59:40.244Z,5816
2016-09-10T13:01:39.785Z,5820
2016-09-10T13:02:39.801Z,5816
2016-09-10T13:03:54.754Z,5812
2016-09-10T13:06:39.922Z,5772
2016-09-10T13:07:40.275Z,5764
2016-09-10T13:08:39.985Z,5764
2016-09-10T13:09:40.003Z,5752
2016-09-10T13:10:40.342Z,5732
2016-09-10T13:11:40.374Z,5724
2016-09-10T13:12:40.425Z,5720
2016-09-10T13:13:55.050Z,5704
2016-09-10T13:14:40.185Z,5700
2016-09-10T13:15:55.236Z,5700
2016-09-10T13:16:40.543Z,5700
2016-09-10T13:17:55.395Z,5700
2016-09-10T13:18:40.287Z,5712
2016-09-10T13:19:40.310Z,5720
2016-09-10T13:20:40.352Z,5728
2016-09-10T13:21:40.374Z,5720
2016-09-10T13:23:40.799Z,5716
2016-09-10T13:24:40.465Z,5696
2016-09-10T13:25:40.493Z,5684
2016-09-10T13:27:40.642Z,5696
2016-09-10T13:28:40.630Z,5704
2016-09-10T13:29:40.683Z,5684
2016-09-10T13:30:40.960Z,5672
2016-09-10T13:31:41.038Z,5656
2016-09-10T13:32:41.098Z,5620
2016-09-10T13:33:41.068Z,5604
2016-09-10T13:34:40.777Z,5564
2016-09-10T13:35:55.770Z,5556
2016-09-10T13:36:55.757Z,5532
2016-09-10T13:37:41.180Z,5532
2016-09-10T13:38:56.416Z,5528
2016-09-10T13:39:41.220Z,5516
2016-09-10T13:40:40.966Z,5480
2016-09-10T13:41:41.007Z,5504
2016-09-10T13:42:41.324Z,5536
2016-09-10T13:43:41.097Z,5524
2016-09-10T13:44:41.082Z,5528
2016-09-10T13:45:41.417Z,5512
2016-09-10T13:46:41.457Z,5512
2016-09-10T13:47:41.212Z,5512
2016-09-10T13:48:41.208Z,5524
2016-09-10T13:49:56.157Z,5504
2016-09-10T13:50:41.271Z,5480
2016-09-10T13:51:56.293Z,5484
2016-09-10T13:52:41.397Z,5480
2016-09-10T13:53:56.307Z,5484
2016-09-10T13:54:41.499Z,5492
2016-09-10T13:55:41.430Z,5468
2016-09-10T13:56:41.458Z,5448
2016-09-10T13:57:56.476Z,5408
2016-09-10T13:58:41.815Z,5388
2016-09-10T13:59:41.867Z,5356
2016-09-10T14:00:41.594Z,5340
2016-09-10T14:01:41.622Z,5308
2016-09-10T14:02:41.627Z,5276
2016-09-10T14:03:41.682Z,5272
2016-09-10T14:04:41.706Z,5240
2016-09-10T14:05:56.658Z,5220
2016-09-10T14:06:41.788Z,5208
2016-09-10T14:07:56.714Z,5228
2016-09-10T14:08:42.225Z,5232
2016-09-10T14:09:42.174Z,5240
2016-09-10T14:10:41.878Z,5244
2016-09-10T14:11:42.251Z,5256
2016-09-10T14:12:41.945Z,5240
2016-09-10T14:13:41.986Z,5192
2016-09-10T14:14:43.560Z,5116
2016-09-10T14:15:42.034Z,5072
2016-09-10T14:16:42.443Z,5072
2016-09-10T14:17:42.114Z,5076
2016-09-10T14:18:42.123Z,5048
2016-09-10T14:19:42.524Z,5016
2016-09-10T14:20:57.429Z,5024
2016-09-10T14:23:57.572Z,5016
2016-09-10T14:24:57.241Z,4992
2016-09-10T14:25:42.350Z,4920
2016-09-10T14:26:42.375Z,4884
2016-09-10T14:27:42.705Z,4908
2016-09-10T14:28:42.740Z,4920
2016-09-10T14:29:57.707Z,4912
2016-09-10T14:30:42.549Z,4912
2016-09-10T14:31:43.632Z,4912
2016-09-10T14:33:42.906Z,4916
2016-09-10T14:34:42.952Z,4908
2016-09-10T14:35:42.657Z,4888
2016-09-10T14:36:57.605Z,4848
2016-09-10T14:37:43.400Z,4840
2016-09-10T14:38:58.025Z,4848
2016-09-10T14:39:43.109Z,4864
2016-09-10T14:40:42.886Z,4872